sensor_id;sensor_type;location;lat;lon;timestamp;temperature;humidity
44509;DHT22;30214;52.246;14.408;2023-10-09T00:01:25;8.70;99.90
44509;DHT22;30214;52.246;14.408;2023-10-09T00:03:57;8.80;99.90
44509;DHT22;30214;52.246;14.408;2023-10-09T00:06:27;8.80;99.90
44509;DHT22;30214;52.246;14.408;2023-10-09T00:09:03;8.80;99.90
44509;DHT22;30214;52.246;14.408;2023-10-09T00:11:42;8.90;99.90
44509;DHT22;30214;52.246;14.408;2023-10-09T00:14:10;8.90;99.90
44509;DHT22;30214;52.246;14.408;2023-10-09T00:16:37;9.00;99.90
44509;DHT22;30214;52.246;14.408;2023-10-09T00:19:14;9.00;99.90
44509;DHT22;30214;52.246;14.408;2023-10-09T00:21:44;8.90;99.90
44509;DHT22;30214;52.246;14.408;2023-10-09T00:24:12;8.90;99.90
44509;DHT22;30214;52.246;14.408;2023-10-09T00:26:51;8.90;99.90
44509;DHT22;30214;52.246;14.408;2023-10-09T00:29:21;8.80;99.90
44509;DHT22;30214;52.246;14.408;2023-10-09T00:31:51;8.80;99.90
44509;DHT22;30214;52.246;14.408;2023-10-09T00:34:33;8.80;99.90
44509;DHT22;30214;52.246;14.408;2023-10-09T00:37:05;8.90;99.90
44509;DHT22;30214;52.246;14.408;2023-10-09T00:39:36;9.10;99.90
44509;DHT22;30214;52.246;14.408;2023-10-09T00:42:10;9.10;99.90
44509;DHT22;30214;52.246;14.408;2023-10-09T00:44:40;9.10;99.90
44509;DHT22;30214;52.246;14.408;2023-10-09T00:47:10;9.10;99.90
44509;DHT22;30214;52.246;14.408;2023-10-09T00:49:51;9.00;99.90
44509;DHT22;30214;52.246;14.408;2023-10-09T00:52:26;8.90;99.90
44509;DHT22;30214;52.246;14.408;2023-10-09T00:54:58;9.00;99.90
44509;DHT22;30214;52.246;14.408;2023-10-09T00:57:31;9.10;99.90
44509;DHT22;30214;52.246;14.408;2023-10-09T01:00:04;9.00;99.90
44509;DHT22;30214;52.246;14.408;2023-10-09T01:02:39;9.00;99.90
44509;DHT22;30214;52.246;14.408;2023-10-09T01:05:10;9.00;99.90
44509;DHT22;30214;52.246;14.408;2023-10-09T01:07:46;9.10;99.90
44509;DHT22;30214;52.246;14.408;2023-10-09T01:10:14;9.10;99.90
44509;DHT22;30214;52.246;14.408;2023-10-09T01:12:43;9.00;99.90
44509;DHT22;30214;52.246;14.408;2023-10-09T01:15:12;8.90;99.90
44509;DHT22;30214;52.246;14.408;2023-10-09T01:18:02;9.00;99.90
44509;DHT22;30214;52.246;14.408;2023-10-09T01:20:31;9.00;99.90
44509;DHT22;30214;52.246;14.408;2023-10-09T01:23:09;8.90;99.90
44509;DHT22;30214;52.246;14.408;2023-10-09T01:25:36;8.80;99.90
44509;DHT22;30214;52.246;14.408;2023-10-09T01:28:10;8.80;99.90
44509;DHT22;30214;52.246;14.408;2023-10-09T01:30:42;8.90;99.90
44509;DHT22;30214;52.246;14.408;2023-10-09T01:33:10;8.90;99.90
44509;DHT22;30214;52.246;14.408;2023-10-09T01:35:48;9.00;99.90
44509;DHT22;30214;52.246;14.408;2023-10-09T01:38:22;9.00;99.90
44509;DHT22;30214;52.246;14.408;2023-10-09T01:40:58;9.00;99.90
44509;DHT22;30214;52.246;14.408;2023-10-09T01:43:32;9.00;99.90
44509;DHT22;30214;52.246;14.408;2023-10-09T01:46:01;8.80;99.90
44509;DHT22;30214;52.246;14.408;2023-10-09T01:48:30;8.70;99.90
44509;DHT22;30214;52.246;14.408;2023-10-09T01:51:03;8.60;99.90
44509;DHT22;30214;52.246;14.408;2023-10-09T01:53:35;8.50;99.90
44509;DHT22;30214;52.246;14.408;2023-10-09T01:56:11;8.60;99.90
44509;DHT22;30214;52.246;14.408;2023-10-09T01:58:42;8.60;99.90
44509;DHT22;30214;52.246;14.408;2023-10-09T02:01:13;8.70;99.90
44509;DHT22;30214;52.246;14.408;2023-10-09T02:03:41;8.70;99.90
44509;DHT22;30214;52.246;14.408;2023-10-09T02:06:09;8.60;99.90
44509;DHT22;30214;52.246;14.408;2023-10-09T02:08:54;8.50;99.90
44509;DHT22;30214;52.246;14.408;2023-10-09T02:11:22;8.40;99.90
44509;DHT22;30214;52.246;14.408;2023-10-09T02:14:03;8.50;99.90
44509;DHT22;30214;52.246;14.408;2023-10-09T02:16:42;8.40;99.90
44509;DHT22;30214;52.246;14.408;2023-10-09T02:19:09;8.40;99.90
44509;DHT22;30214;52.246;14.408;2023-10-09T02:21:55;8.40;99.90
44509;DHT22;30214;52.246;14.408;2023-10-09T02:24:25;8.30;99.90
44509;DHT22;30214;52.246;14.408;2023-10-09T02:27:15;8.30;99.90
44509;DHT22;30214;52.246;14.408;2023-10-09T02:30:04;8.20;99.90
44509;DHT22;30214;52.246;14.408;2023-10-09T02:32:42;8.10;99.90
44509;DHT22;30214;52.246;14.408;2023-10-09T02:35:10;8.10;99.90
44509;DHT22;30214;52.246;14.408;2023-10-09T02:37:46;8.00;99.90
44509;DHT22;30214;52.246;14.408;2023-10-09T02:40:15;8.00;99.90
44509;DHT22;30214;52.246;14.408;2023-10-09T02:42:57;7.90;99.90
44509;DHT22;30214;52.246;14.408;2023-10-09T02:45:24;8.00;99.90
44509;DHT22;30214;52.246;14.408;2023-10-09T02:47:58;8.00;99.90
44509;DHT22;30214;52.246;14.408;2023-10-09T02:50:25;8.10;99.90
44509;DHT22;30214;52.246;14.408;2023-10-09T02:52:54;8.10;99.90
44509;DHT22;30214;52.246;14.408;2023-10-09T02:55:28;8.10;99.90
44509;DHT22;30214;52.246;14.408;2023-10-09T02:57:55;8.00;99.90
44509;DHT22;30214;52.246;14.408;2023-10-09T03:00:32;8.00;99.90
44509;DHT22;30214;52.246;14.408;2023-10-09T03:03:03;8.00;99.90
44509;DHT22;30214;52.246;14.408;2023-10-09T03:05:32;7.90;99.90
44509;DHT22;30214;52.246;14.408;2023-10-09T03:07:59;8.00;99.90
44509;DHT22;30214;52.246;14.408;2023-10-09T03:10:29;8.00;99.90
44509;DHT22;30214;52.246;14.408;2023-10-09T03:12:55;8.00;99.90
44509;DHT22;30214;52.246;14.408;2023-10-09T03:15:25;8.00;99.90
44509;DHT22;30214;52.246;14.408;2023-10-09T03:17:54;8.10;99.90
44509;DHT22;30214;52.246;14.408;2023-10-09T03:20:21;8.20;99.90
44509;DHT22;30214;52.246;14.408;2023-10-09T03:22:48;8.30;99.90
44509;DHT22;30214;52.246;14.408;2023-10-09T03:25:16;8.20;99.90
44509;DHT22;30214;52.246;14.408;2023-10-09T03:27:45;8.10;99.90
44509;DHT22;30214;52.246;14.408;2023-10-09T03:30:13;8.10;99.90
44509;DHT22;30214;52.246;14.408;2023-10-09T03:32:48;8.10;99.90
44509;DHT22;30214;52.246;14.408;2023-10-09T03:35:17;8.20;99.90
44509;DHT22;30214;52.246;14.408;2023-10-09T03:37:52;8.20;99.90
44509;DHT22;30214;52.246;14.408;2023-10-09T03:40:23;8.30;99.90
44509;DHT22;30214;52.246;14.408;2023-10-09T03:42:52;8.20;99.90
44509;DHT22;30214;52.246;14.408;2023-10-09T03:45:19;8.30;99.90
44509;DHT22;30214;52.246;14.408;2023-10-09T03:47:53;8.40;99.90
44509;DHT22;30214;52.246;14.408;2023-10-09T03:50:27;8.40;99.90
44509;DHT22;30214;52.246;14.408;2023-10-09T03:53:02;8.30;99.90
44509;DHT22;30214;52.246;14.408;2023-10-09T03:55:32;8.30;99.90
44509;DHT22;30214;52.246;14.408;2023-10-09T03:58:00;8.40;99.90
44509;DHT22;30214;52.246;14.408;2023-10-09T04:00:28;8.30;99.90
44509;DHT22;30214;52.246;14.408;2023-10-09T04:02:57;8.30;99.90
44509;DHT22;30214;52.246;14.408;2023-10-09T04:05:25;8.30;99.90
44509;DHT22;30214;52.246;14.408;2023-10-09T04:07:55;8.20;99.90
44509;DHT22;30214;52.246;14.408;2023-10-09T04:10:24;8.20;99.90
44509;DHT22;30214;52.246;14.408;2023-10-09T04:13:11;8.10;99.90
44509;DHT22;30214;52.246;14.408;2023-10-09T04:15:43;8.10;99.90
44509;DHT22;30214;52.246;14.408;2023-10-09T04:18:10;8.10;99.90
44509;DHT22;30214;52.246;14.408;2023-10-09T04:20:42;8.10;99.90
44509;DHT22;30214;52.246;14.408;2023-10-09T04:23:32;8.10;99.90
44509;DHT22;30214;52.246;14.408;2023-10-09T04:26:21;8.10;99.90
44509;DHT22;30214;52.246;14.408;2023-10-09T04:28:49;8.20;99.90
44509;DHT22;30214;52.246;14.408;2023-10-09T04:31:18;8.10;99.90
44509;DHT22;30214;52.246;14.408;2023-10-09T04:33:47;8.10;99.90
44509;DHT22;30214;52.246;14.408;2023-10-09T04:36:23;8.20;99.90
44509;DHT22;30214;52.246;14.408;2023-10-09T04:38:54;8.20;99.90
44509;DHT22;30214;52.246;14.408;2023-10-09T04:41:41;8.10;99.90
44509;DHT22;30214;52.246;14.408;2023-10-09T04:44:20;8.10;99.90
44509;DHT22;30214;52.246;14.408;2023-10-09T04:46:51;8.20;99.90
44509;DHT22;30214;52.246;14.408;2023-10-09T04:49:37;8.20;99.90
44509;DHT22;30214;52.246;14.408;2023-10-09T04:52:15;8.20;99.90
44509;DHT22;30214;52.246;14.408;2023-10-09T04:55:05;8.00;99.90
44509;DHT22;30214;52.246;14.408;2023-10-09T04:57:45;8.00;99.90
44509;DHT22;30214;52.246;14.408;2023-10-09T05:00:27;8.10;99.90
44509;DHT22;30214;52.246;14.408;2023-10-09T05:03:12;8.00;99.90
44509;DHT22;30214;52.246;14.408;2023-10-09T05:05:51;8.00;99.90
44509;DHT22;30214;52.246;14.408;2023-10-09T05:08:26;8.00;99.90
44509;DHT22;30214;52.246;14.408;2023-10-09T05:10:55;8.00;99.90
44509;DHT22;30214;52.246;14.408;2023-10-09T05:13:41;8.10;99.90
44509;DHT22;30214;52.246;14.408;2023-10-09T05:16:15;8.10;99.90
44509;DHT22;30214;52.246;14.408;2023-10-09T05:18:44;8.10;99.90
44509;DHT22;30214;52.246;14.408;2023-10-09T05:21:22;8.20;99.90
44509;DHT22;30214;52.246;14.408;2023-10-09T05:24:03;8.20;99.90
44509;DHT22;30214;52.246;14.408;2023-10-09T05:26:46;8.20;99.90
44509;DHT22;30214;52.246;14.408;2023-10-09T05:29:19;8.20;99.90
44509;DHT22;30214;52.246;14.408;2023-10-09T05:31:52;8.20;99.90
44509;DHT22;30214;52.246;14.408;2023-10-09T05:34:29;8.10;99.90
44509;DHT22;30214;52.246;14.408;2023-10-09T05:36:59;8.10;99.90
44509;DHT22;30214;52.246;14.408;2023-10-09T05:39:43;8.10;99.90
44509;DHT22;30214;52.246;14.408;2023-10-09T05:42:24;8.20;99.90
44509;DHT22;30214;52.246;14.408;2023-10-09T05:44:55;8.10;99.90
44509;DHT22;30214;52.246;14.408;2023-10-09T05:47:43;8.00;99.90
44509;DHT22;30214;52.246;14.408;2023-10-09T05:50:19;8.00;99.90
44509;DHT22;30214;52.246;14.408;2023-10-09T05:53:01;8.00;99.90
44509;DHT22;30214;52.246;14.408;2023-10-09T05:55:35;8.00;99.90
44509;DHT22;30214;52.246;14.408;2023-10-09T05:58:21;8.10;99.90
44509;DHT22;30214;52.246;14.408;2023-10-09T06:01:29;8.00;99.90
44509;DHT22;30214;52.246;14.408;2023-10-09T06:04:11;8.00;99.90
44509;DHT22;30214;52.246;14.408;2023-10-09T06:06:43;8.00;99.90
44509;DHT22;30214;52.246;14.408;2023-10-09T06:09:12;8.00;99.90
44509;DHT22;30214;52.246;14.408;2023-10-09T06:11:57;8.00;99.90
44509;DHT22;30214;52.246;14.408;2023-10-09T06:14:38;8.00;99.90
44509;DHT22;30214;52.246;14.408;2023-10-09T06:17:24;8.00;99.90
44509;DHT22;30214;52.246;14.408;2023-10-09T06:19:54;8.00;99.90
44509;DHT22;30214;52.246;14.408;2023-10-09T06:22:25;8.20;99.90
44509;DHT22;30214;52.246;14.408;2023-10-09T06:25:09;8.10;99.90
44509;DHT22;30214;52.246;14.408;2023-10-09T06:27:38;8.10;99.90
44509;DHT22;30214;52.246;14.408;2023-10-09T06:30:22;8.10;99.90
44509;DHT22;30214;52.246;14.408;2023-10-09T06:32:52;8.20;99.90
44509;DHT22;30214;52.246;14.408;2023-10-09T06:35:35;8.20;99.90
44509;DHT22;30214;52.246;14.408;2023-10-09T06:38:02;8.30;99.90
44509;DHT22;30214;52.246;14.408;2023-10-09T06:40:48;8.30;99.90
44509;DHT22;30214;52.246;14.408;2023-10-09T06:43:33;8.40;99.90
44509;DHT22;30214;52.246;14.408;2023-10-09T06:46:15;8.40;99.90
44509;DHT22;30214;52.246;14.408;2023-10-09T06:49:00;8.40;99.90
44509;DHT22;30214;52.246;14.408;2023-10-09T06:51:48;8.40;99.90
44509;DHT22;30214;52.246;14.408;2023-10-09T06:54:21;8.40;99.90
44509;DHT22;30214;52.246;14.408;2023-10-09T06:56:51;8.40;99.90
44509;DHT22;30214;52.246;14.408;2023-10-09T06:59:35;8.40;99.90
44509;DHT22;30214;52.246;14.408;2023-10-09T07:02:28;8.30;99.90
44509;DHT22;30214;52.246;14.408;2023-10-09T07:04:57;8.40;99.90
44509;DHT22;30214;52.246;14.408;2023-10-09T07:07:37;8.40;99.90
44509;DHT22;30214;52.246;14.408;2023-10-09T07:10:16;8.40;99.90
44509;DHT22;30214;52.246;14.408;2023-10-09T07:13:05;8.40;99.90
44509;DHT22;30214;52.246;14.408;2023-10-09T07:15:31;8.40;99.90
44509;DHT22;30214;52.246;14.408;2023-10-09T07:18:15;8.40;99.90
44509;DHT22;30214;52.246;14.408;2023-10-09T07:20:51;8.40;99.90
44509;DHT22;30214;52.246;14.408;2023-10-09T07:23:36;8.50;99.90
44509;DHT22;30214;52.246;14.408;2023-10-09T07:26:13;8.50;99.90
44509;DHT22;30214;52.246;14.408;2023-10-09T07:28:48;8.50;99.90
44509;DHT22;30214;52.246;14.408;2023-10-09T07:31:19;8.50;99.90
44509;DHT22;30214;52.246;14.408;2023-10-09T07:33:53;8.50;99.90
44509;DHT22;30214;52.246;14.408;2023-10-09T07:36:32;8.60;99.90
44509;DHT22;30214;52.246;14.408;2023-10-09T07:39:05;8.60;99.90
44509;DHT22;30214;52.246;14.408;2023-10-09T07:41:41;8.60;99.90
44509;DHT22;30214;52.246;14.408;2023-10-09T07:44:21;8.60;99.90
44509;DHT22;30214;52.246;14.408;2023-10-09T07:47:07;8.60;99.90
44509;DHT22;30214;52.246;14.408;2023-10-09T07:49:44;8.70;99.90
44509;DHT22;30214;52.246;14.408;2023-10-09T07:52:18;8.80;99.90
44509;DHT22;30214;52.246;14.408;2023-10-09T07:54:49;8.80;99.90
44509;DHT22;30214;52.246;14.408;2023-10-09T07:57:29;8.80;99.90
44509;DHT22;30214;52.246;14.408;2023-10-09T08:00:05;8.80;99.90
44509;DHT22;30214;52.246;14.408;2023-10-09T08:02:59;8.70;99.90
44509;DHT22;30214;52.246;14.408;2023-10-09T08:05:28;8.70;99.90
44509;DHT22;30214;52.246;14.408;2023-10-09T08:07:59;8.70;99.90
44509;DHT22;30214;52.246;14.408;2023-10-09T08:10:50;8.70;99.90
44509;DHT22;30214;52.246;14.408;2023-10-09T08:13:37;8.80;99.90
44509;DHT22;30214;52.246;14.408;2023-10-09T08:16:22;8.80;99.90
44509;DHT22;30214;52.246;14.408;2023-10-09T08:18:50;8.80;99.90
44509;DHT22;30214;52.246;14.408;2023-10-09T08:21:18;8.80;99.90
44509;DHT22;30214;52.246;14.408;2023-10-09T08:24:07;8.80;99.90
44509;DHT22;30214;52.246;14.408;2023-10-09T08:26:55;8.90;99.90
44509;DHT22;30214;52.246;14.408;2023-10-09T08:29:36;8.80;99.90
44509;DHT22;30214;52.246;14.408;2023-10-09T08:32:03;8.90;99.90
44509;DHT22;30214;52.246;14.408;2023-10-09T08:34:43;8.90;99.90
44509;DHT22;30214;52.246;14.408;2023-10-09T08:37:19;9.00;99.90
44509;DHT22;30214;52.246;14.408;2023-10-09T08:39:50;9.00;99.90
44509;DHT22;30214;52.246;14.408;2023-10-09T08:42:19;8.90;99.90
44509;DHT22;30214;52.246;14.408;2023-10-09T08:44:49;8.90;99.90
44509;DHT22;30214;52.246;14.408;2023-10-09T08:47:17;8.90;99.90
44509;DHT22;30214;52.246;14.408;2023-10-09T08:49:45;8.90;99.90
44509;DHT22;30214;52.246;14.408;2023-10-09T08:52:12;9.10;99.90
44509;DHT22;30214;52.246;14.408;2023-10-09T08:54:39;9.10;99.90
44509;DHT22;30214;52.246;14.408;2023-10-09T08:57:06;9.00;99.90
44509;DHT22;30214;52.246;14.408;2023-10-09T08:59:41;9.00;99.90
44509;DHT22;30214;52.246;14.408;2023-10-09T09:02:09;9.00;99.90
44509;DHT22;30214;52.246;14.408;2023-10-09T09:04:37;8.90;99.90
44509;DHT22;30214;52.246;14.408;2023-10-09T09:07:05;8.80;99.90
44509;DHT22;30214;52.246;14.408;2023-10-09T09:09:34;8.80;99.90
44509;DHT22;30214;52.246;14.408;2023-10-09T09:12:01;8.80;99.90
44509;DHT22;30214;52.246;14.408;2023-10-09T09:14:38;8.80;99.90
44509;DHT22;30214;52.246;14.408;2023-10-09T09:17:07;8.80;99.90
44509;DHT22;30214;52.246;14.408;2023-10-09T09:19:37;8.80;99.90
44509;DHT22;30214;52.246;14.408;2023-10-09T09:22:05;8.80;99.90
44509;DHT22;30214;52.246;14.408;2023-10-09T09:24:39;8.80;99.90
44509;DHT22;30214;52.246;14.408;2023-10-09T09:27:11;8.80;99.90
44509;DHT22;30214;52.246;14.408;2023-10-09T09:29:47;8.90;99.90
44509;DHT22;30214;52.246;14.408;2023-10-09T09:32:28;9.00;99.90
44509;DHT22;30214;52.246;14.408;2023-10-09T09:35:03;9.00;99.90
44509;DHT22;30214;52.246;14.408;2023-10-09T09:37:32;9.00;99.90
44509;DHT22;30214;52.246;14.408;2023-10-09T09:40:16;9.00;99.90
44509;DHT22;30214;52.246;14.408;2023-10-09T09:42:57;9.00;99.90
44509;DHT22;30214;52.246;14.408;2023-10-09T09:45:32;9.00;99.90
44509;DHT22;30214;52.246;14.408;2023-10-09T09:48:02;8.90;99.90
44509;DHT22;30214;52.246;14.408;2023-10-09T09:50:32;8.70;99.90
44509;DHT22;30214;52.246;14.408;2023-10-09T09:52:59;8.70;99.90
44509;DHT22;30214;52.246;14.408;2023-10-09T09:55:30;8.80;99.90
44509;DHT22;30214;52.246;14.408;2023-10-09T09:58:02;8.90;99.90
44509;DHT22;30214;52.246;14.408;2023-10-09T10:00:33;8.90;99.90
44509;DHT22;30214;52.246;14.408;2023-10-09T10:03:11;8.80;99.90
44509;DHT22;30214;52.246;14.408;2023-10-09T10:05:41;8.90;99.90
44509;DHT22;30214;52.246;14.408;2023-10-09T10:08:15;8.90;99.90
44509;DHT22;30214;52.246;14.408;2023-10-09T10:10:45;9.00;99.90
44509;DHT22;30214;52.246;14.408;2023-10-09T10:13:55;9.20;99.90
44509;DHT22;30214;52.246;14.408;2023-10-09T10:16:30;9.30;99.90
44509;DHT22;30214;52.246;14.408;2023-10-09T10:19:02;9.40;99.90
44509;DHT22;30214;52.246;14.408;2023-10-09T10:21:48;9.50;99.90
44509;DHT22;30214;52.246;14.408;2023-10-09T10:24:40;9.50;99.90
44509;DHT22;30214;52.246;14.408;2023-10-09T10:27:19;9.60;99.90
44509;DHT22;30214;52.246;14.408;2023-10-09T10:33:01;9.80;99.90
44509;DHT22;30214;52.246;14.408;2023-10-09T10:35:38;9.80;99.90
44509;DHT22;30214;52.246;14.408;2023-10-09T10:38:28;9.80;99.90
44509;DHT22;30214;52.246;14.408;2023-10-09T10:41:14;9.70;99.90
44509;DHT22;30214;52.246;14.408;2023-10-09T10:43:44;9.60;99.90
44509;DHT22;30214;52.246;14.408;2023-10-09T10:46:49;9.50;99.90
44509;DHT22;30214;52.246;14.408;2023-10-09T10:49:20;9.40;99.90
44509;DHT22;30214;52.246;14.408;2023-10-09T10:51:49;9.30;99.90
44509;DHT22;30214;52.246;14.408;2023-10-09T10:54:27;9.30;99.90
44509;DHT22;30214;52.246;14.408;2023-10-09T10:57:19;9.30;99.90
44509;DHT22;30214;52.246;14.408;2023-10-09T10:59:55;9.30;99.90
44509;DHT22;30214;52.246;14.408;2023-10-09T11:02:40;9.40;99.90
44509;DHT22;30214;52.246;14.408;2023-10-09T11:05:08;9.60;99.90
44509;DHT22;30214;52.246;14.408;2023-10-09T11:07:50;9.80;99.90
44509;DHT22;30214;52.246;14.408;2023-10-09T11:10:22;10.00;99.90
44509;DHT22;30214;52.246;14.408;2023-10-09T11:12:54;10.10;99.90
44509;DHT22;30214;52.246;14.408;2023-10-09T11:15:39;10.20;99.90
44509;DHT22;30214;52.246;14.408;2023-10-09T11:18:13;10.20;99.90
44509;DHT22;30214;52.246;14.408;2023-10-09T11:20:49;10.20;99.90
44509;DHT22;30214;52.246;14.408;2023-10-09T11:23:48;10.10;99.90
44509;DHT22;30214;52.246;14.408;2023-10-09T11:26:26;10.00;99.90
44509;DHT22;30214;52.246;14.408;2023-10-09T11:29:07;10.10;99.90
44509;DHT22;30214;52.246;14.408;2023-10-09T11:31:40;10.20;99.90
44509;DHT22;30214;52.246;14.408;2023-10-09T11:34:18;10.20;99.90
44509;DHT22;30214;52.246;14.408;2023-10-09T11:36:59;10.20;99.90
44509;DHT22;30214;52.246;14.408;2023-10-09T11:39:29;10.70;99.90
44509;DHT22;30214;52.246;14.408;2023-10-09T11:42:00;10.70;99.90
44509;DHT22;30214;52.246;14.408;2023-10-09T11:44:40;10.80;99.90
44509;DHT22;30214;52.246;14.408;2023-10-09T11:47:10;10.80;99.90
44509;DHT22;30214;52.246;14.408;2023-10-09T11:49:56;10.90;99.90
44509;DHT22;30214;52.246;14.408;2023-10-09T11:52:57;10.90;99.90
44509;DHT22;30214;52.246;14.408;2023-10-09T11:55:44;10.90;99.90
44509;DHT22;30214;52.246;14.408;2023-10-09T11:58:14;10.90;99.90
44509;DHT22;30214;52.246;14.408;2023-10-09T12:00:49;10.80;99.90
44509;DHT22;30214;52.246;14.408;2023-10-09T12:03:17;10.80;99.90
44509;DHT22;30214;52.246;14.408;2023-10-09T12:05:49;10.80;99.90
44509;DHT22;30214;52.246;14.408;2023-10-09T12:08:17;10.90;99.90
44509;DHT22;30214;52.246;14.408;2023-10-09T12:10:47;10.90;99.90
44509;DHT22;30214;52.246;14.408;2023-10-09T12:13:14;10.90;99.90
44509;DHT22;30214;52.246;14.408;2023-10-09T12:15:42;11.00;99.90
44509;DHT22;30214;52.246;14.408;2023-10-09T12:18:12;11.00;99.90
44509;DHT22;30214;52.246;14.408;2023-10-09T12:20:42;11.00;99.90
44509;DHT22;30214;52.246;14.408;2023-10-09T12:23:17;10.90;99.90
44509;DHT22;30214;52.246;14.408;2023-10-09T12:25:44;11.00;99.90
44509;DHT22;30214;52.246;14.408;2023-10-09T12:28:12;11.00;99.90
44509;DHT22;30214;52.246;14.408;2023-10-09T12:30:40;10.90;99.90
44509;DHT22;30214;52.246;14.408;2023-10-09T12:33:07;11.00;99.90
44509;DHT22;30214;52.246;14.408;2023-10-09T12:35:38;10.90;99.90
44509;DHT22;30214;52.246;14.408;2023-10-09T12:38:06;10.90;99.90
44509;DHT22;30214;52.246;14.408;2023-10-09T12:40:37;10.90;99.90
44509;DHT22;30214;52.246;14.408;2023-10-09T12:43:06;10.90;99.90
44509;DHT22;30214;52.246;14.408;2023-10-09T12:45:41;10.90;99.90
44509;DHT22;30214;52.246;14.408;2023-10-09T12:48:08;11.00;99.90
44509;DHT22;30214;52.246;14.408;2023-10-09T12:50:35;11.00;99.90
44509;DHT22;30214;52.246;14.408;2023-10-09T12:53:08;11.10;99.90
44509;DHT22;30214;52.246;14.408;2023-10-09T12:55:38;11.10;99.90
44509;DHT22;30214;52.246;14.408;2023-10-09T12:58:07;11.10;99.90
44509;DHT22;30214;52.246;14.408;2023-10-09T13:00:34;11.20;99.90
44509;DHT22;30214;52.246;14.408;2023-10-09T13:03:06;11.20;99.90
44509;DHT22;30214;52.246;14.408;2023-10-09T13:05:46;11.30;99.90
44509;DHT22;30214;52.246;14.408;2023-10-09T13:08:22;11.30;99.90
44509;DHT22;30214;52.246;14.408;2023-10-09T13:10:52;11.20;99.90
44509;DHT22;30214;52.246;14.408;2023-10-09T13:13:26;11.30;99.90
44509;DHT22;30214;52.246;14.408;2023-10-09T13:16:06;11.40;99.90
44509;DHT22;30214;52.246;14.408;2023-10-09T13:18:37;11.20;99.90
44509;DHT22;30214;52.246;14.408;2023-10-09T13:21:04;11.20;99.90
44509;DHT22;30214;52.246;14.408;2023-10-09T13:23:31;11.30;99.90
44509;DHT22;30214;52.246;14.408;2023-10-09T13:26:06;11.40;99.90
44509;DHT22;30214;52.246;14.408;2023-10-09T13:28:47;11.40;99.90
44509;DHT22;30214;52.246;14.408;2023-10-09T13:31:15;11.30;99.90
44509;DHT22;30214;52.246;14.408;2023-10-09T13:33:44;11.20;99.90
44509;DHT22;30214;52.246;14.408;2023-10-09T13:36:13;11.10;99.90
44509;DHT22;30214;52.246;14.408;2023-10-09T13:38:45;10.90;99.90
44509;DHT22;30214;52.246;14.408;2023-10-09T13:41:15;10.80;99.90
44509;DHT22;30214;52.246;14.408;2023-10-09T13:43:43;10.80;99.90
44509;DHT22;30214;52.246;14.408;2023-10-09T13:46:10;10.70;99.90
44509;DHT22;30214;52.246;14.408;2023-10-09T13:48:40;10.70;99.90
44509;DHT22;30214;52.246;14.408;2023-10-09T13:51:09;10.80;99.90
44509;DHT22;30214;52.246;14.408;2023-10-09T13:53:43;10.80;99.90
44509;DHT22;30214;52.246;14.408;2023-10-09T13:56:13;10.70;99.90
44509;DHT22;30214;52.246;14.408;2023-10-09T13:58:46;10.70;99.90
44509;DHT22;30214;52.246;14.408;2023-10-09T14:01:13;10.70;99.90
44509;DHT22;30214;52.246;14.408;2023-10-09T14:03:55;10.90;99.90
44509;DHT22;30214;52.246;14.408;2023-10-09T14:06:23;11.20;99.90
44509;DHT22;30214;52.246;14.408;2023-10-09T14:09:00;11.20;99.90
44509;DHT22;30214;52.246;14.408;2023-10-09T14:11:30;11.20;99.90
44509;DHT22;30214;52.246;14.408;2023-10-09T14:13:58;11.20;99.90
44509;DHT22;30214;52.246;14.408;2023-10-09T14:16:27;11.10;99.90
44509;DHT22;30214;52.246;14.408;2023-10-09T14:18:57;11.10;99.90
44509;DHT22;30214;52.246;14.408;2023-10-09T14:21:26;11.20;99.90
44509;DHT22;30214;52.246;14.408;2023-10-09T14:23:56;11.20;99.90
44509;DHT22;30214;52.246;14.408;2023-10-09T14:26:24;11.30;99.90
44509;DHT22;30214;52.246;14.408;2023-10-09T14:28:52;11.20;99.90
44509;DHT22;30214;52.246;14.408;2023-10-09T14:31:21;11.10;99.90
44509;DHT22;30214;52.246;14.408;2023-10-09T14:33:53;11.00;99.90
44509;DHT22;30214;52.246;14.408;2023-10-09T14:36:20;10.90;99.90
44509;DHT22;30214;52.246;14.408;2023-10-09T14:38:49;11.10;99.90
44509;DHT22;30214;52.246;14.408;2023-10-09T14:41:19;11.10;99.90
44509;DHT22;30214;52.246;14.408;2023-10-09T14:43:49;11.30;99.90
44509;DHT22;30214;52.246;14.408;2023-10-09T14:46:16;11.20;99.90
44509;DHT22;30214;52.246;14.408;2023-10-09T14:48:51;11.40;99.90
44509;DHT22;30214;52.246;14.408;2023-10-09T14:51:20;11.50;99.90
44509;DHT22;30214;52.246;14.408;2023-10-09T14:53:58;11.50;99.90
44509;DHT22;30214;52.246;14.408;2023-10-09T14:56:27;11.50;99.90
44509;DHT22;30214;52.246;14.408;2023-10-09T14:59:01;11.60;99.90
44509;DHT22;30214;52.246;14.408;2023-10-09T15:01:29;11.60;99.90
44509;DHT22;30214;52.246;14.408;2023-10-09T15:03:59;11.50;99.90
44509;DHT22;30214;52.246;14.408;2023-10-09T15:06:27;11.50;99.90
44509;DHT22;30214;52.246;14.408;2023-10-09T15:08:56;11.50;99.90
44509;DHT22;30214;52.246;14.408;2023-10-09T15:11:26;11.50;99.90
44509;DHT22;30214;52.246;14.408;2023-10-09T15:13:55;11.50;99.90
44509;DHT22;30214;52.246;14.408;2023-10-09T15:16:24;11.50;99.90
44509;DHT22;30214;52.246;14.408;2023-10-09T15:18:58;11.50;99.90
44509;DHT22;30214;52.246;14.408;2023-10-09T15:21:31;11.50;99.90
44509;DHT22;30214;52.246;14.408;2023-10-09T15:23:59;11.50;99.90
44509;DHT22;30214;52.246;14.408;2023-10-09T15:26:32;11.60;99.90
44509;DHT22;30214;52.246;14.408;2023-10-09T15:29:03;11.60;99.90
44509;DHT22;30214;52.246;14.408;2023-10-09T15:31:32;11.60;99.90
44509;DHT22;30214;52.246;14.408;2023-10-09T15:34:01;11.50;99.90
44509;DHT22;30214;52.246;14.408;2023-10-09T15:36:35;11.60;99.90
44509;DHT22;30214;52.246;14.408;2023-10-09T15:39:02;11.50;99.90
44509;DHT22;30214;52.246;14.408;2023-10-09T15:41:33;11.40;99.90
44509;DHT22;30214;52.246;14.408;2023-10-09T15:44:01;11.40;99.90
44509;DHT22;30214;52.246;14.408;2023-10-09T15:46:28;11.40;99.90
44509;DHT22;30214;52.246;14.408;2023-10-09T15:49:01;11.40;99.90
44509;DHT22;30214;52.246;14.408;2023-10-09T15:51:29;11.50;99.90
44509;DHT22;30214;52.246;14.408;2023-10-09T15:54:08;11.50;99.90
44509;DHT22;30214;52.246;14.408;2023-10-09T15:56:38;11.40;99.90
44509;DHT22;30214;52.246;14.408;2023-10-09T15:59:07;11.20;99.90
44509;DHT22;30214;52.246;14.408;2023-10-09T16:01:40;11.20;99.90
44509;DHT22;30214;52.246;14.408;2023-10-09T16:04:10;11.30;99.90
44509;DHT22;30214;52.246;14.408;2023-10-09T16:06:37;11.20;99.90
44509;DHT22;30214;52.246;14.408;2023-10-09T16:09:06;11.10;99.90
44509;DHT22;30214;52.246;14.408;2023-10-09T16:11:37;11.00;99.90